x

Smith Island, Wa (sisw1) Weather Station

6:00 - Tue 31st May 2016 All times are PDT. -7 hours from GMT.

  • Wind
    1mph
  • Aire Temp 51°f
  • Sea Pressure 1020.8mb
  • Smith Island, Wa
  • Smith Island, Wa

More Historic Weather Station data

Upgrade to MSW Pro to gain access to the past 30 days of data for over 8000 Wavebouys and Weather Stations around the globe.

Join Pro

Comparision Forecast

View Surf forecast
   
mar 05/31 6:00 1
mph
1020.8mb 51f
5:00 6
mph
1020.7mb 51f
4:00 5
mph
1021.2mb 51f
3:00 1 2 mph 1021.7mb 51f
2:00 8 9 mph 1021.7mb 52f
1:00 10 13 mph 1022mb 52f
12:00 10 11 mph 1022.2mb 52f
lun 05/30 11:00 11 13 mph 1022.6mb 53f
10:00 10 11 mph 1023mb 53f
9:00 11 13 mph 1022.9mb 53f
8:00 13 14 mph 1023.2mb 54f
7:00 7 9 mph 1023.5mb 57f
6:00 6 7 mph 1024mb 57f
5:00 8
mph
1024.3mb 58f
4:00 6 7 mph 1024.8mb 58f
3:00 5 6 mph 1025.3mb 59f
2:00 5
mph
1025.7mb 57f
1:00 7
mph
1026mb 55f
12:00 7
mph
1026.3mb 53f
11:00 5
mph
1026.5mb 53f
10:00 3 5 mph 1026.5mb 53f
9:00 7 9 mph 1026.8mb 52f
8:00 10 11 mph 1026.6mb 51f
7:00 10 13 mph 1026.1mb 51f
6:00 15 18 mph 1025.8mb 50f
5:00 11 16 mph 1025.5mb 50f
4:00 11 17 mph 1025.3mb 51f
3:00 15 20 mph 1024.9mb 51f
2:00 14 21 mph 1024.7mb 51f
1:00 17 22 mph 1024.2mb 51f
12:00 20 25 mph 1023.9mb 52f
dom 05/29 11:00 18 23 mph 1023.7mb 52f
10:00 17 20 mph 1023.2mb 52f
9:00 18 20 mph 1022.6mb 52f
8:00 15 16 mph 1022.6mb 54f
7:00 11 13 mph 1022.3mb 55f
6:00 13 14 mph 1022.2mb 55f
5:00 8 9 mph 1021.9mb 58f
4:00 10 13 mph 1021.9mb 57f
3:00 14 16 mph 1021.8mb 56f
2:00 16 18 mph 1021.6mb 55f
1:00 11 14 mph 1021.4mb 55f
12:00 11 15 mph 1020.9mb 54f
11:00 15 17 mph 1020.2mb 53f
10:00 15 16 mph 1020mb 51f
9:00 13 15 mph 1019.5mb 51f
8:00 15 17 mph 1019mb 51f
7:00 14 16 mph 1018.7mb 50f
6:00 7 8 mph 1018.3mb 51f
5:00 15 18 mph 1017.3mb 51f
4:00 9 13 mph 1017.1mb 51f
3:00 9 10 mph 1017mb 51f
2:00 6 7 mph 1016.9mb 52f
1:00 5 6 mph 1016.9mb 51f
12:00 6 7 mph 1016.8mb 51f
sáb 05/28 11:00 8 9 mph 1016.6mb 51f
10:00 11 13 mph 1016.3mb 52f
9:00 5 6 mph 1015.8mb 53f
8:00 3
mph
1015.6mb 54f
7:00 16 17 mph 1015mb 55f
6:00 18 21 mph 1014.9mb 55f
5:00 24 26 mph 1014.8mb 56f
4:00 29 30 mph 1014.8mb 57f
3:00 28 31 mph 1014.6mb 58f
2:00 26 28 mph 1014.6mb 58f
1:00 24 26 mph 1015mb 55f
12:00 25 29 mph 1015.6mb 54f
11:00 28 31 mph 1015.7mb 52f
10:00 31 34 mph 1015.7mb 51f
9:00 31 34 mph 1015.9mb 51f
8:00 32 34 mph 1015.9mb 50f
7:00 24 26 mph 1016.6mb 50f
6:00 23 25 mph 1017mb 49f
5:00 18 21 mph 1017.5mb 49f
4:00 9 10 mph 1018.3mb 49f
3:00 5 7 mph 1019mb 49f
2:00 7 11 mph 1019.3mb 49f
1:00 9 13 mph 1019.5mb 50f
12:00 15 16 mph 1019.5mb 51f
vie 05/27 11:00 17 20 mph 1019.5mb 51f
10:00 20 22 mph 1019.6mb 51f
9:00 21 24 mph 1019.4mb 52f
8:00 20 23 mph 1019.6mb 52f
7:00 14 17 mph 1019.8mb 53f
6:00 15 18 mph 1019.8mb 53f
5:00 15 20 mph 1020.2mb 53f
4:00 16 18 mph 1020.6mb 54f
3:00 14 15 mph 1020.8mb 54f